sensor_id;sensor_type;location;lat;lon;timestamp;P1;durP1;ratioP1;P2;durP2;ratioP2
69956;SDS011;57283;54.816;9.482;2023-07-09T00:00:43;6.95;;;3.42;;
69956;SDS011;57283;54.816;9.482;2023-07-09T00:03:11;7.03;;;3.00;;
69956;SDS011;57283;54.816;9.482;2023-07-09T00:05:39;6.53;;;3.08;;
69956;SDS011;57283;54.816;9.482;2023-07-09T00:08:07;6.25;;;3.00;;
69956;SDS011;57283;54.816;9.482;2023-07-09T00:10:44;7.13;;;3.10;;
69956;SDS011;57283;54.816;9.482;2023-07-09T00:13:12;6.38;;;3.30;;
69956;SDS011;57283;54.816;9.482;2023-07-09T00:15:40;7.30;;;3.28;;
69956;SDS011;57283;54.816;9.482;2023-07-09T00:18:07;6.88;;;3.25;;
69956;SDS011;57283;54.816;9.482;2023-07-09T00:20:35;6.10;;;3.60;;
69956;SDS011;57283;54.816;9.482;2023-07-09T00:23:03;6.33;;;3.40;;
69956;SDS011;57283;54.816;9.482;2023-07-09T00:25:31;7.05;;;3.30;;
69956;SDS011;57283;54.816;9.482;2023-07-09T00:28:03;5.95;;;3.70;;
69956;SDS011;57283;54.816;9.482;2023-07-09T00:30:31;7.82;;;3.35;;
69956;SDS011;57283;54.816;9.482;2023-07-09T00:32:58;6.75;;;3.60;;
69956;SDS011;57283;54.816;9.482;2023-07-09T00:35:27;7.47;;;3.30;;
69956;SDS011;57283;54.816;9.482;2023-07-09T00:37:55;7.00;;;3.50;;
69956;SDS011;57283;54.816;9.482;2023-07-09T00:40:26;9.10;;;3.70;;
69956;SDS011;57283;54.816;9.482;2023-07-09T00:42:54;7.97;;;3.55;;
69956;SDS011;57283;54.816;9.482;2023-07-09T00:45:24;7.50;;;3.88;;
69956;SDS011;57283;54.816;9.482;2023-07-09T00:47:53;9.07;;;4.00;;
69956;SDS011;57283;54.816;9.482;2023-07-09T00:50:26;6.40;;;3.55;;
69956;SDS011;57283;54.816;9.482;2023-07-09T00:52:56;6.25;;;3.53;;
69956;SDS011;57283;54.816;9.482;2023-07-09T00:55:25;6.95;;;3.92;;
69956;SDS011;57283;54.816;9.482;2023-07-09T00:57:55;6.20;;;3.70;;
69956;SDS011;57283;54.816;9.482;2023-07-09T01:00:28;7.23;;;3.60;;
69956;SDS011;57283;54.816;9.482;2023-07-09T01:02:56;6.13;;;3.45;;
69956;SDS011;57283;54.816;9.482;2023-07-09T01:05:25;6.93;;;3.65;;
69956;SDS011;57283;54.816;9.482;2023-07-09T01:07:53;6.65;;;3.72;;
69956;SDS011;57283;54.816;9.482;2023-07-09T01:10:21;7.47;;;3.60;;
69956;SDS011;57283;54.816;9.482;2023-07-09T01:12:48;5.83;;;3.60;;
69956;SDS011;57283;54.816;9.482;2023-07-09T01:15:17;8.52;;;3.67;;
69956;SDS011;57283;54.816;9.482;2023-07-09T01:17:46;7.30;;;3.80;;
69956;SDS011;57283;54.816;9.482;2023-07-09T01:20:15;6.97;;;3.50;;
69956;SDS011;57283;54.816;9.482;2023-07-09T01:22:45;7.00;;;3.75;;
69956;SDS011;57283;54.816;9.482;2023-07-09T01:25:15;6.27;;;3.10;;
69956;SDS011;57283;54.816;9.482;2023-07-09T01:27:44;6.95;;;3.83;;
69956;SDS011;57283;54.816;9.482;2023-07-09T01:30:13;6.65;;;3.95;;
69956;SDS011;57283;54.816;9.482;2023-07-09T01:32:41;7.47;;;4.10;;
69956;SDS011;57283;54.816;9.482;2023-07-09T01:35:12;7.72;;;4.30;;
69956;SDS011;57283;54.816;9.482;2023-07-09T01:37:42;7.77;;;4.10;;
69956;SDS011;57283;54.816;9.482;2023-07-09T01:40:12;6.90;;;3.88;;
69956;SDS011;57283;54.816;9.482;2023-07-09T01:42:56;7.35;;;3.90;;
69956;SDS011;57283;54.816;9.482;2023-07-09T01:45:25;7.00;;;3.90;;
69956;SDS011;57283;54.816;9.482;2023-07-09T01:47:53;7.70;;;4.40;;
69956;SDS011;57283;54.816;9.482;2023-07-09T01:50:22;7.70;;;3.83;;
69956;SDS011;57283;54.816;9.482;2023-07-09T01:52:50;9.70;;;4.70;;
69956;SDS011;57283;54.816;9.482;2023-07-09T01:55:19;8.63;;;4.35;;
69956;SDS011;57283;54.816;9.482;2023-07-09T01:57:47;7.85;;;4.93;;
69956;SDS011;57283;54.816;9.482;2023-07-09T02:00:17;7.25;;;3.92;;
69956;SDS011;57283;54.816;9.482;2023-07-09T02:02:46;8.17;;;4.17;;
69956;SDS011;57283;54.816;9.482;2023-07-09T02:05:15;7.65;;;4.03;;
69956;SDS011;57283;54.816;9.482;2023-07-09T02:07:42;7.90;;;4.38;;
69956;SDS011;57283;54.816;9.482;2023-07-09T02:10:10;8.10;;;4.30;;
69956;SDS011;57283;54.816;9.482;2023-07-09T02:12:39;7.72;;;4.43;;
69956;SDS011;57283;54.816;9.482;2023-07-09T02:15:07;9.10;;;4.47;;
69956;SDS011;57283;54.816;9.482;2023-07-09T02:17:35;7.90;;;4.05;;
69956;SDS011;57283;54.816;9.482;2023-07-09T02:20:03;8.75;;;4.40;;
69956;SDS011;57283;54.816;9.482;2023-07-09T02:22:33;8.18;;;4.00;;
69956;SDS011;57283;54.816;9.482;2023-07-09T02:25:00;8.23;;;4.82;;
69956;SDS011;57283;54.816;9.482;2023-07-09T02:27:28;9.00;;;4.90;;
69956;SDS011;57283;54.816;9.482;2023-07-09T02:29:57;7.95;;;4.43;;
69956;SDS011;57283;54.816;9.482;2023-07-09T02:32:26;10.43;;;5.10;;
69956;SDS011;57283;54.816;9.482;2023-07-09T02:34:54;8.07;;;4.55;;
69956;SDS011;57283;54.816;9.482;2023-07-09T02:37:22;13.20;;;5.47;;
69956;SDS011;57283;54.816;9.482;2023-07-09T02:39:50;10.53;;;5.40;;
69956;SDS011;57283;54.816;9.482;2023-07-09T02:42:18;11.00;;;5.82;;
69956;SDS011;57283;54.816;9.482;2023-07-09T02:44:46;9.98;;;6.20;;
69956;SDS011;57283;54.816;9.482;2023-07-09T02:47:16;12.73;;;5.63;;
69956;SDS011;57283;54.816;9.482;2023-07-09T02:49:44;10.60;;;6.03;;
69956;SDS011;57283;54.816;9.482;2023-07-09T02:52:11;12.70;;;5.73;;
69956;SDS011;57283;54.816;9.482;2023-07-09T02:54:39;10.55;;;5.95;;
69956;SDS011;57283;54.816;9.482;2023-07-09T02:57:07;10.82;;;5.80;;
69956;SDS011;57283;54.816;9.482;2023-07-09T02:59:34;10.63;;;5.20;;
69956;SDS011;57283;54.816;9.482;2023-07-09T03:02:02;10.05;;;5.80;;
69956;SDS011;57283;54.816;9.482;2023-07-09T03:04:32;9.50;;;5.37;;
69956;SDS011;57283;54.816;9.482;2023-07-09T03:06:59;9.45;;;5.35;;
69956;SDS011;57283;54.816;9.482;2023-07-09T03:09:27;9.80;;;5.18;;
69956;SDS011;57283;54.816;9.482;2023-07-09T03:11:55;10.65;;;5.07;;
69956;SDS011;57283;54.816;9.482;2023-07-09T03:14:22;11.75;;;5.45;;
69956;SDS011;57283;54.816;9.482;2023-07-09T03:16:50;10.53;;;5.37;;
69956;SDS011;57283;54.816;9.482;2023-07-09T03:19:17;9.13;;;5.13;;
69956;SDS011;57283;54.816;9.482;2023-07-09T03:21:46;9.90;;;5.22;;
69956;SDS011;57283;54.816;9.482;2023-07-09T03:24:14;9.60;;;4.93;;
69956;SDS011;57283;54.816;9.482;2023-07-09T03:26:45;14.45;;;5.30;;
69956;SDS011;57283;54.816;9.482;2023-07-09T03:29:13;11.60;;;5.13;;
69956;SDS011;57283;54.816;9.482;2023-07-09T03:31:41;9.43;;;5.65;;
69956;SDS011;57283;54.816;9.482;2023-07-09T03:34:09;9.75;;;5.15;;
69956;SDS011;57283;54.816;9.482;2023-07-09T03:36:36;8.48;;;5.07;;
69956;SDS011;57283;54.816;9.482;2023-07-09T03:39:06;8.35;;;5.20;;
69956;SDS011;57283;54.816;9.482;2023-07-09T03:41:33;13.27;;;6.03;;
69956;SDS011;57283;54.816;9.482;2023-07-09T03:44:01;9.95;;;5.25;;
69956;SDS011;57283;54.816;9.482;2023-07-09T03:46:29;10.57;;;5.97;;
69956;SDS011;57283;54.816;9.482;2023-07-09T03:48:58;10.75;;;5.63;;
69956;SDS011;57283;54.816;9.482;2023-07-09T03:51:26;11.52;;;5.63;;
69956;SDS011;57283;54.816;9.482;2023-07-09T03:53:54;9.93;;;5.40;;
69956;SDS011;57283;54.816;9.482;2023-07-09T03:56:23;9.40;;;5.05;;
69956;SDS011;57283;54.816;9.482;2023-07-09T03:58:51;10.35;;;4.95;;
69956;SDS011;57283;54.816;9.482;2023-07-09T04:01:18;10.07;;;4.75;;
69956;SDS011;57283;54.816;9.482;2023-07-09T04:03:46;8.55;;;4.57;;
69956;SDS011;57283;54.816;9.482;2023-07-09T04:06:14;8.50;;;4.20;;
69956;SDS011;57283;54.816;9.482;2023-07-09T04:08:42;8.50;;;4.80;;
69956;SDS011;57283;54.816;9.482;2023-07-09T04:11:09;9.15;;;4.55;;
69956;SDS011;57283;54.816;9.482;2023-07-09T04:13:38;7.30;;;4.22;;
69956;SDS011;57283;54.816;9.482;2023-07-09T04:16:06;8.98;;;5.07;;
69956;SDS011;57283;54.816;9.482;2023-07-09T04:18:34;11.10;;;4.80;;
69956;SDS011;57283;54.816;9.482;2023-07-09T04:21:02;9.52;;;4.45;;
69956;SDS011;57283;54.816;9.482;2023-07-09T04:23:30;11.40;;;4.50;;
69956;SDS011;57283;54.816;9.482;2023-07-09T04:25:58;9.27;;;4.40;;
69956;SDS011;57283;54.816;9.482;2023-07-09T04:28:29;9.00;;;4.25;;
69956;SDS011;57283;54.816;9.482;2023-07-09T04:30:59;8.07;;;4.20;;
69956;SDS011;57283;54.816;9.482;2023-07-09T04:33:26;9.48;;;4.40;;
69956;SDS011;57283;54.816;9.482;2023-07-09T04:35:55;8.60;;;4.38;;
69956;SDS011;57283;54.816;9.482;2023-07-09T04:38:22;6.72;;;3.88;;
69956;SDS011;57283;54.816;9.482;2023-07-09T04:40:50;9.00;;;4.10;;
69956;SDS011;57283;54.816;9.482;2023-07-09T04:43:18;7.93;;;4.00;;
69956;SDS011;57283;54.816;9.482;2023-07-09T04:45:45;8.40;;;4.05;;
69956;SDS011;57283;54.816;9.482;2023-07-09T04:48:14;6.00;;;3.70;;
69956;SDS011;57283;54.816;9.482;2023-07-09T04:50:42;7.63;;;4.65;;
69956;SDS011;57283;54.816;9.482;2023-07-09T04:53:10;7.80;;;4.65;;
69956;SDS011;57283;54.816;9.482;2023-07-09T04:55:38;7.73;;;4.23;;
69956;SDS011;57283;54.816;9.482;2023-07-09T04:58:05;9.38;;;3.97;;
69956;SDS011;57283;54.816;9.482;2023-07-09T05:00:33;7.47;;;3.88;;
69956;SDS011;57283;54.816;9.482;2023-07-09T05:03:01;7.88;;;3.80;;
69956;SDS011;57283;54.816;9.482;2023-07-09T05:05:30;5.85;;;3.50;;
69956;SDS011;57283;54.816;9.482;2023-07-09T05:07:57;6.27;;;3.90;;
69956;SDS011;57283;54.816;9.482;2023-07-09T05:10:25;7.38;;;3.88;;
69956;SDS011;57283;54.816;9.482;2023-07-09T05:12:53;7.32;;;4.00;;
69956;SDS011;57283;54.816;9.482;2023-07-09T05:15:22;7.45;;;4.05;;
69956;SDS011;57283;54.816;9.482;2023-07-09T05:17:49;6.85;;;3.90;;
69956;SDS011;57283;54.816;9.482;2023-07-09T05:20:18;8.20;;;3.80;;
69956;SDS011;57283;54.816;9.482;2023-07-09T05:22:49;6.57;;;3.55;;
69956;SDS011;57283;54.816;9.482;2023-07-09T05:25:16;7.07;;;3.95;;
69956;SDS011;57283;54.816;9.482;2023-07-09T05:27:44;7.13;;;3.65;;
69956;SDS011;57283;54.816;9.482;2023-07-09T05:30:12;7.38;;;3.88;;
69956;SDS011;57283;54.816;9.482;2023-07-09T05:32:40;7.67;;;3.83;;
69956;SDS011;57283;54.816;9.482;2023-07-09T05:35:08;8.00;;;3.70;;
69956;SDS011;57283;54.816;9.482;2023-07-09T05:37:35;6.53;;;3.90;;
69956;SDS011;57283;54.816;9.482;2023-07-09T05:40:06;5.53;;;3.50;;
69956;SDS011;57283;54.816;9.482;2023-07-09T05:42:33;9.85;;;4.18;;
69956;SDS011;57283;54.816;9.482;2023-07-09T05:45:01;6.97;;;3.50;;
69956;SDS011;57283;54.816;9.482;2023-07-09T05:47:29;6.35;;;3.30;;
69956;SDS011;57283;54.816;9.482;2023-07-09T05:49:56;5.93;;;3.55;;
69956;SDS011;57283;54.816;9.482;2023-07-09T05:52:24;5.85;;;3.83;;
69956;SDS011;57283;54.816;9.482;2023-07-09T05:54:52;8.02;;;3.63;;
69956;SDS011;57283;54.816;9.482;2023-07-09T05:57:21;5.73;;;3.47;;
69956;SDS011;57283;54.816;9.482;2023-07-09T05:59:49;7.45;;;3.97;;
69956;SDS011;57283;54.816;9.482;2023-07-09T06:02:19;5.28;;;3.42;;
69956;SDS011;57283;54.816;9.482;2023-07-09T06:04:47;6.80;;;3.95;;
69956;SDS011;57283;54.816;9.482;2023-07-09T06:07:16;5.13;;;3.35;;
69956;SDS011;57283;54.816;9.482;2023-07-09T06:09:44;6.03;;;3.80;;
69956;SDS011;57283;54.816;9.482;2023-07-09T06:12:14;6.18;;;3.70;;
69956;SDS011;57283;54.816;9.482;2023-07-09T06:14:43;6.82;;;3.65;;
69956;SDS011;57283;54.816;9.482;2023-07-09T06:17:10;6.72;;;3.55;;
69956;SDS011;57283;54.816;9.482;2023-07-09T06:19:38;5.97;;;3.72;;
69956;SDS011;57283;54.816;9.482;2023-07-09T06:22:06;6.07;;;4.07;;
69956;SDS011;57283;54.816;9.482;2023-07-09T06:24:33;6.00;;;3.67;;
69956;SDS011;57283;54.816;9.482;2023-07-09T06:27:01;5.68;;;3.50;;
69956;SDS011;57283;54.816;9.482;2023-07-09T06:29:29;6.70;;;4.03;;
69956;SDS011;57283;54.816;9.482;2023-07-09T06:31:58;6.72;;;4.68;;
69956;SDS011;57283;54.816;9.482;2023-07-09T06:34:26;6.40;;;3.47;;
69956;SDS011;57283;54.816;9.482;2023-07-09T06:36:53;6.93;;;4.05;;
69956;SDS011;57283;54.816;9.482;2023-07-09T06:39:21;6.35;;;3.50;;
69956;SDS011;57283;54.816;9.482;2023-07-09T06:41:49;5.63;;;3.80;;
69956;SDS011;57283;54.816;9.482;2023-07-09T06:44:17;5.43;;;3.75;;
69956;SDS011;57283;54.816;9.482;2023-07-09T06:46:44;6.63;;;4.10;;
69956;SDS011;57283;54.816;9.482;2023-07-09T06:49:14;5.90;;;3.72;;
69956;SDS011;57283;54.816;9.482;2023-07-09T06:51:41;5.43;;;3.90;;
69956;SDS011;57283;54.816;9.482;2023-07-09T06:54:09;5.07;;;3.80;;
69956;SDS011;57283;54.816;9.482;2023-07-09T06:56:38;5.55;;;3.78;;
69956;SDS011;57283;54.816;9.482;2023-07-09T06:59:06;5.27;;;3.73;;
69956;SDS011;57283;54.816;9.482;2023-07-09T07:01:34;5.88;;;3.65;;
69956;SDS011;57283;54.816;9.482;2023-07-09T07:04:01;5.30;;;4.00;;
69956;SDS011;57283;54.816;9.482;2023-07-09T07:06:30;5.57;;;3.60;;
69956;SDS011;57283;54.816;9.482;2023-07-09T07:08:58;6.28;;;4.10;;
69956;SDS011;57283;54.816;9.482;2023-07-09T07:11:26;5.80;;;3.60;;
69956;SDS011;57283;54.816;9.482;2023-07-09T07:13:56;5.25;;;3.78;;
69956;SDS011;57283;54.816;9.482;2023-07-09T07:16:24;5.50;;;4.00;;
69956;SDS011;57283;54.816;9.482;2023-07-09T07:18:52;5.95;;;4.07;;
69956;SDS011;57283;54.816;9.482;2023-07-09T07:21:19;5.53;;;4.03;;
69956;SDS011;57283;54.816;9.482;2023-07-09T07:23:48;5.33;;;3.90;;
69956;SDS011;57283;54.816;9.482;2023-07-09T07:26:19;5.63;;;3.80;;
69956;SDS011;57283;54.816;9.482;2023-07-09T07:28:46;5.00;;;3.55;;
69956;SDS011;57283;54.816;9.482;2023-07-09T07:31:14;5.68;;;4.60;;
69956;SDS011;57283;54.816;9.482;2023-07-09T07:33:42;4.82;;;3.60;;
69956;SDS011;57283;54.816;9.482;2023-07-09T07:36:09;4.88;;;3.60;;
69956;SDS011;57283;54.816;9.482;2023-07-09T07:38:40;5.63;;;3.70;;
69956;SDS011;57283;54.816;9.482;2023-07-09T07:41:09;5.63;;;4.10;;
69956;SDS011;57283;54.816;9.482;2023-07-09T07:43:37;5.10;;;3.70;;
69956;SDS011;57283;54.816;9.482;2023-07-09T07:46:05;5.28;;;3.45;;
69956;SDS011;57283;54.816;9.482;2023-07-09T07:48:34;4.75;;;3.90;;
69956;SDS011;57283;54.816;9.482;2023-07-09T07:51:02;4.85;;;3.60;;
69956;SDS011;57283;54.816;9.482;2023-07-09T07:53:30;5.93;;;3.92;;
69956;SDS011;57283;54.816;9.482;2023-07-09T07:55:57;5.47;;;4.00;;
69956;SDS011;57283;54.816;9.482;2023-07-09T07:58:30;4.97;;;3.80;;
69956;SDS011;57283;54.816;9.482;2023-07-09T08:00:58;5.40;;;3.65;;
69956;SDS011;57283;54.816;9.482;2023-07-09T08:03:26;5.13;;;3.92;;
69956;SDS011;57283;54.816;9.482;2023-07-09T08:05:54;4.85;;;3.40;;
69956;SDS011;57283;54.816;9.482;2023-07-09T08:08:25;5.53;;;4.22;;
69956;SDS011;57283;54.816;9.482;2023-07-09T08:10:59;5.07;;;3.83;;
69956;SDS011;57283;54.816;9.482;2023-07-09T08:13:27;5.43;;;3.90;;
69956;SDS011;57283;54.816;9.482;2023-07-09T08:15:56;4.95;;;4.00;;
69956;SDS011;57283;54.816;9.482;2023-07-09T08:18:24;7.07;;;4.38;;
69956;SDS011;57283;54.816;9.482;2023-07-09T08:20:52;5.35;;;4.40;;
69956;SDS011;57283;54.816;9.482;2023-07-09T08:23:19;5.10;;;3.80;;
69956;SDS011;57283;54.816;9.482;2023-07-09T08:25:52;5.47;;;4.00;;
69956;SDS011;57283;54.816;9.482;2023-07-09T08:28:19;4.82;;;3.85;;
69956;SDS011;57283;54.816;9.482;2023-07-09T08:30:47;5.30;;;4.22;;
69956;SDS011;57283;54.816;9.482;2023-07-09T08:33:16;6.20;;;3.90;;
69956;SDS011;57283;54.816;9.482;2023-07-09T08:35:44;5.45;;;4.25;;
69956;SDS011;57283;54.816;9.482;2023-07-09T08:38:11;5.30;;;3.83;;
69956;SDS011;57283;54.816;9.482;2023-07-09T08:40:39;4.73;;;4.20;;
69956;SDS011;57283;54.816;9.482;2023-07-09T08:43:11;4.90;;;4.10;;
69956;SDS011;57283;54.816;9.482;2023-07-09T08:45:44;5.05;;;4.15;;
69956;SDS011;57283;54.816;9.482;2023-07-09T08:48:18;4.80;;;4.00;;
69956;SDS011;57283;54.816;9.482;2023-07-09T08:50:47;5.53;;;4.05;;
69956;SDS011;57283;54.816;9.482;2023-07-09T08:53:16;5.25;;;4.20;;
69956;SDS011;57283;54.816;9.482;2023-07-09T08:55:46;5.13;;;3.88;;
69956;SDS011;57283;54.816;9.482;2023-07-09T08:58:24;5.80;;;3.80;;
69956;SDS011;57283;54.816;9.482;2023-07-09T09:00:53;7.05;;;4.10;;
69956;SDS011;57283;54.816;9.482;2023-07-09T09:03:27;6.03;;;4.45;;
69956;SDS011;57283;54.816;9.482;2023-07-09T09:05:56;5.82;;;4.18;;
69956;SDS011;57283;54.816;9.482;2023-07-09T09:08:28;4.65;;;3.85;;
69956;SDS011;57283;54.816;9.482;2023-07-09T09:10:58;5.00;;;3.87;;
69956;SDS011;57283;54.816;9.482;2023-07-09T09:13:28;5.43;;;4.00;;
69956;SDS011;57283;54.816;9.482;2023-07-09T09:15:58;5.30;;;3.90;;
69956;SDS011;57283;54.816;9.482;2023-07-09T09:18:32;5.90;;;4.30;;
69956;SDS011;57283;54.816;9.482;2023-07-09T09:21:01;4.63;;;4.13;;
69956;SDS011;57283;54.816;9.482;2023-07-09T09:23:36;5.78;;;4.10;;
69956;SDS011;57283;54.816;9.482;2023-07-09T09:26:06;6.45;;;4.10;;
69956;SDS011;57283;54.816;9.482;2023-07-09T09:28:39;6.53;;;4.28;;
69956;SDS011;57283;54.816;9.482;2023-07-09T09:31:08;4.95;;;4.30;;
69956;SDS011;57283;54.816;9.482;2023-07-09T09:33:39;4.93;;;4.20;;
69956;SDS011;57283;54.816;9.482;2023-07-09T09:36:11;5.05;;;4.10;;
69956;SDS011;57283;54.816;9.482;2023-07-09T09:38:41;5.30;;;4.03;;
69956;SDS011;57283;54.816;9.482;2023-07-09T09:41:12;6.72;;;5.35;;
69956;SDS011;57283;54.816;9.482;2023-07-09T09:43:41;6.20;;;4.22;;
69956;SDS011;57283;54.816;9.482;2023-07-09T09:46:09;4.88;;;4.00;;
69956;SDS011;57283;54.816;9.482;2023-07-09T09:48:38;6.07;;;4.57;;
69956;SDS011;57283;54.816;9.482;2023-07-09T09:51:06;5.47;;;4.30;;
69956;SDS011;57283;54.816;9.482;2023-07-09T09:53:36;5.20;;;4.20;;
69956;SDS011;57283;54.816;9.482;2023-07-09T09:56:05;6.27;;;4.00;;
69956;SDS011;57283;54.816;9.482;2023-07-09T09:58:32;5.47;;;4.22;;
69956;SDS011;57283;54.816;9.482;2023-07-09T10:01:00;6.28;;;4.05;;
69956;SDS011;57283;54.816;9.482;2023-07-09T10:03:34;5.28;;;3.80;;
69956;SDS011;57283;54.816;9.482;2023-07-09T10:06:06;5.25;;;3.90;;
69956;SDS011;57283;54.816;9.482;2023-07-09T10:08:37;5.10;;;4.00;;
69956;SDS011;57283;54.816;9.482;2023-07-09T10:11:12;5.70;;;4.50;;
69956;SDS011;57283;54.816;9.482;2023-07-09T10:13:43;5.53;;;3.77;;
69956;SDS011;57283;54.816;9.482;2023-07-09T10:16:14;5.10;;;3.70;;
69956;SDS011;57283;54.816;9.482;2023-07-09T10:18:47;6.45;;;4.20;;
69956;SDS011;57283;54.816;9.482;2023-07-09T10:21:21;6.15;;;3.83;;
69956;SDS011;57283;54.816;9.482;2023-07-09T10:23:53;5.72;;;3.83;;
69956;SDS011;57283;54.816;9.482;2023-07-09T10:26:30;6.00;;;3.80;;
69956;SDS011;57283;54.816;9.482;2023-07-09T10:29:07;7.20;;;4.10;;
69956;SDS011;57283;54.816;9.482;2023-07-09T10:31:41;5.27;;;3.77;;
69956;SDS011;57283;54.816;9.482;2023-07-09T10:34:14;5.25;;;3.63;;
69956;SDS011;57283;54.816;9.482;2023-07-09T10:36:53;4.78;;;3.90;;
69956;SDS011;57283;54.816;9.482;2023-07-09T10:39:26;5.05;;;3.40;;
69956;SDS011;57283;54.816;9.482;2023-07-09T10:41:55;5.30;;;3.75;;
69956;SDS011;57283;54.816;9.482;2023-07-09T10:44:28;5.43;;;3.50;;
69956;SDS011;57283;54.816;9.482;2023-07-09T10:46:58;5.90;;;3.70;;
69956;SDS011;57283;54.816;9.482;2023-07-09T10:49:31;5.93;;;3.60;;
69956;SDS011;57283;54.816;9.482;2023-07-09T10:52:04;5.53;;;3.75;;
69956;SDS011;57283;54.816;9.482;2023-07-09T10:54:34;4.90;;;3.40;;
69956;SDS011;57283;54.816;9.482;2023-07-09T10:57:05;4.70;;;3.55;;
69956;SDS011;57283;54.816;9.482;2023-07-09T10:59:37;4.83;;;3.73;;
69956;SDS011;57283;54.816;9.482;2023-07-09T11:02:13;5.57;;;3.30;;
69956;SDS011;57283;54.816;9.482;2023-07-09T11:04:46;5.28;;;3.40;;
69956;SDS011;57283;54.816;9.482;2023-07-09T11:07:18;5.05;;;3.63;;
69956;SDS011;57283;54.816;9.482;2023-07-09T11:09:47;6.15;;;4.05;;
69956;SDS011;57283;54.816;9.482;2023-07-09T11:12:22;4.70;;;3.60;;
69956;SDS011;57283;54.816;9.482;2023-07-09T11:14:52;5.17;;;3.60;;
69956;SDS011;57283;54.816;9.482;2023-07-09T11:17:22;5.87;;;3.40;;
69956;SDS011;57283;54.816;9.482;2023-07-09T11:29:22;6.95;;;3.80;;
69956;SDS011;57283;54.816;9.482;2023-07-09T11:31:50;4.90;;;2.90;;
69956;SDS011;57283;54.816;9.482;2023-07-09T11:34:19;4.90;;;3.20;;
69956;SDS011;57283;54.816;9.482;2023-07-09T11:36:48;5.70;;;3.20;;
69956;SDS011;57283;54.816;9.482;2023-07-09T11:39:17;5.88;;;3.50;;
69956;SDS011;57283;54.816;9.482;2023-07-09T11:41:45;5.10;;;3.60;;
69956;SDS011;57283;54.816;9.482;2023-07-09T11:44:15;5.00;;;3.30;;
69956;SDS011;57283;54.816;9.482;2023-07-09T11:46:57;7.23;;;3.47;;
69956;SDS011;57283;54.816;9.482;2023-07-09T11:49:27;4.57;;;3.15;;
69956;SDS011;57283;54.816;9.482;2023-07-09T11:59:39;5.28;;;3.33;;
69956;SDS011;57283;54.816;9.482;2023-07-09T12:02:05;5.20;;;4.27;;
69956;SDS011;57283;54.816;9.482;2023-07-09T12:04:35;6.40;;;3.40;;
69956;SDS011;57283;54.816;9.482;2023-07-09T12:07:01;4.80;;;3.28;;
69956;SDS011;57283;54.816;9.482;2023-07-09T12:09:30;5.68;;;3.63;;
69956;SDS011;57283;54.816;9.482;2023-07-09T12:11:57;6.25;;;4.05;;
69956;SDS011;57283;54.816;9.482;2023-07-09T12:14:23;4.73;;;3.17;;
69956;SDS011;57283;54.816;9.482;2023-07-09T12:16:51;5.20;;;3.87;;
69956;SDS011;57283;54.816;9.482;2023-07-09T12:19:18;5.82;;;3.05;;
69956;SDS011;57283;54.816;9.482;2023-07-09T12:21:46;5.75;;;3.28;;
69956;SDS011;57283;54.816;9.482;2023-07-09T12:24:17;7.57;;;3.55;;
69956;SDS011;57283;54.816;9.482;2023-07-09T12:26:47;5.00;;;3.28;;
69956;SDS011;57283;54.816;9.482;2023-07-09T12:29:15;4.85;;;3.30;;
69956;SDS011;57283;54.816;9.482;2023-07-09T12:31:42;4.40;;;3.00;;
69956;SDS011;57283;54.816;9.482;2023-07-09T12:34:13;5.25;;;3.10;;
69956;SDS011;57283;54.816;9.482;2023-07-09T12:36:44;4.88;;;3.20;;
69956;SDS011;57283;54.816;9.482;2023-07-09T12:39:13;4.10;;;2.95;;
69956;SDS011;57283;54.816;9.482;2023-07-09T12:41:42;4.65;;;3.30;;
69956;SDS011;57283;54.816;9.482;2023-07-09T12:44:14;5.10;;;2.97;;
69956;SDS011;57283;54.816;9.482;2023-07-09T12:46:42;7.85;;;2.70;;
69956;SDS011;57283;54.816;9.482;2023-07-09T12:49:15;5.28;;;2.90;;
69956;SDS011;57283;54.816;9.482;2023-07-09T12:51:45;7.10;;;3.10;;
69956;SDS011;57283;54.816;9.482;2023-07-09T12:54:14;4.43;;;3.10;;
69956;SDS011;57283;54.816;9.482;2023-07-09T12:56:42;4.87;;;2.80;;
69956;SDS011;57283;54.816;9.482;2023-07-09T12:59:15;4.47;;;3.05;;
69956;SDS011;57283;54.816;9.482;2023-07-09T13:01:47;4.70;;;3.35;;
69956;SDS011;57283;54.816;9.482;2023-07-09T13:04:17;5.32;;;2.90;;
69956;SDS011;57283;54.816;9.482;2023-07-09T13:06:44;4.45;;;3.30;;
69956;SDS011;57283;54.816;9.482;2023-07-09T13:09:15;4.70;;;3.10;;
69956;SDS011;57283;54.816;9.482;2023-07-09T13:11:44;5.15;;;3.45;;
69956;SDS011;57283;54.816;9.482;2023-07-09T13:14:16;4.32;;;2.90;;
69956;SDS011;57283;54.816;9.482;2023-07-09T13:16:45;5.32;;;3.58;;
69956;SDS011;57283;54.816;9.482;2023-07-09T13:19:12;5.70;;;3.33;;
69956;SDS011;57283;54.816;9.482;2023-07-09T13:21:41;5.93;;;3.40;;
69956;SDS011;57283;54.816;9.482;2023-07-09T13:24:16;4.88;;;2.80;;
69956;SDS011;57283;54.816;9.482;2023-07-09T13:26:44;4.95;;;3.10;;
69956;SDS011;57283;54.816;9.482;2023-07-09T13:29:13;6.53;;;3.05;;
69956;SDS011;57283;54.816;9.482;2023-07-09T13:31:42;5.18;;;3.53;;
69956;SDS011;57283;54.816;9.482;2023-07-09T13:34:13;5.67;;;3.03;;
69956;SDS011;57283;54.816;9.482;2023-07-09T13:36:45;5.80;;;3.55;;
69956;SDS011;57283;54.816;9.482;2023-07-09T13:39:13;5.88;;;3.50;;
69956;SDS011;57283;54.816;9.482;2023-07-09T13:41:42;5.32;;;3.17;;
69956;SDS011;57283;54.816;9.482;2023-07-09T13:44:10;5.85;;;3.20;;
69956;SDS011;57283;54.816;9.482;2023-07-09T13:46:39;4.67;;;2.93;;
69956;SDS011;57283;54.816;9.482;2023-07-09T13:49:08;5.70;;;3.50;;
69956;SDS011;57283;54.816;9.482;2023-07-09T13:51:36;4.78;;;3.22;;
69956;SDS011;57283;54.816;9.482;2023-07-09T13:54:09;4.75;;;3.20;;
69956;SDS011;57283;54.816;9.482;2023-07-09T13:56:40;6.75;;;3.38;;
69956;SDS011;57283;54.816;9.482;2023-07-09T13:59:11;4.70;;;3.40;;
69956;SDS011;57283;54.816;9.482;2023-07-09T14:01:39;6.25;;;3.20;;
69956;SDS011;57283;54.816;9.482;2023-07-09T14:04:08;4.47;;;3.28;;
69956;SDS011;57283;54.816;9.482;2023-07-09T14:06:36;6.22;;;3.50;;
69956;SDS011;57283;54.816;9.482;2023-07-09T14:09:04;5.03;;;3.50;;
69956;SDS011;57283;54.816;9.482;2023-07-09T14:11:34;6.57;;;3.27;;
69956;SDS011;57283;54.816;9.482;2023-07-09T14:14:04;5.13;;;3.00;;
69956;SDS011;57283;54.816;9.482;2023-07-09T14:16:35;5.95;;;3.58;;
69956;SDS011;57283;54.816;9.482;2023-07-09T14:19:02;6.18;;;3.53;;
69956;SDS011;57283;54.816;9.482;2023-07-09T14:21:30;5.15;;;3.60;;
69956;SDS011;57283;54.816;9.482;2023-07-09T14:24:00;4.73;;;2.90;;
69956;SDS011;57283;54.816;9.482;2023-07-09T14:26:28;5.00;;;3.20;;
69956;SDS011;57283;54.816;9.482;2023-07-09T14:28:57;4.45;;;3.05;;
69956;SDS011;57283;54.816;9.482;2023-07-09T14:31:26;6.38;;;3.25;;
69956;SDS011;57283;54.816;9.482;2023-07-09T14:33:54;5.25;;;3.60;;
69956;SDS011;57283;54.816;9.482;2023-07-09T14:36:22;5.07;;;3.37;;
69956;SDS011;57283;54.816;9.482;2023-07-09T14:38:50;6.28;;;3.50;;
69956;SDS011;57283;54.816;9.482;2023-07-09T14:41:19;4.93;;;3.35;;
69956;SDS011;57283;54.816;9.482;2023-07-09T14:43:47;5.13;;;3.20;;
69956;SDS011;57283;54.816;9.482;2023-07-09T14:46:17;4.63;;;3.40;;
69956;SDS011;57283;54.816;9.482;2023-07-09T14:48:44;5.33;;;2.97;;
69956;SDS011;57283;54.816;9.482;2023-07-09T14:51:12;6.25;;;3.47;;
69956;SDS011;57283;54.816;9.482;2023-07-09T14:53:41;7.85;;;3.42;;
69956;SDS011;57283;54.816;9.482;2023-07-09T14:56:09;5.35;;;3.30;;
69956;SDS011;57283;54.816;9.482;2023-07-09T14:58:37;5.53;;;3.60;;
69956;SDS011;57283;54.816;9.482;2023-07-09T15:01:07;7.10;;;3.80;;
69956;SDS011;57283;54.816;9.482;2023-07-09T15:03:38;5.07;;;3.60;;
69956;SDS011;57283;54.816;9.482;2023-07-09T15:06:06;5.00;;;3.85;;
69956;SDS011;57283;54.816;9.482;2023-07-09T15:08:35;5.35;;;3.75;;
69956;SDS011;57283;54.816;9.482;2023-07-09T15:11:03;5.00;;;3.65;;
69956;SDS011;57283;54.816;9.482;2023-07-09T15:13:32;5.80;;;3.50;;
69956;SDS011;57283;54.816;9.482;2023-07-09T15:16:01;5.13;;;3.60;;